Time;durP1;ratioP1;P1;durP2;ratioP2;P2;SDS_P1;SDS_P2;PMS_P1;PMS_P2;Temp;Humidity;BMP_temperature;BMP_pressure;BME280_temperature;BME280_humidity;BME280_pressure;Samples;Min_cycle;Max_cycle;Signal;HPM_P1;HPM_P2
2023/03/27 00:02:06;;;;;;;8.45;1.83;;;;;;;;;;4944822;28;20217;-65
2023/03/27 00:04:31;;;;;;;7.07;1.33;;;;;;;;;;4941477;28;20628;-66
2023/03/27 00:06:58;;;;;;;12.02;2.00;;;;;;;;;;4942422;28;20321;-66
2023/03/27 00:09:24;;;;;;;11.73;1.90;;;;;;;;;;4953938;28;20210;-65
2023/03/27 00:11:49;;;;;;;9.27;1.43;;;;;;;;;;4937290;28;20228;-66
2023/03/27 00:14:15;;;;;;;9.03;1.77;;;;;;;;;;4953538;28;20651;-65
2023/03/27 00:16:40;;;;;;;10.67;1.60;;;;;;;;;;4960850;28;20377;-65
2023/03/27 00:19:05;;;;;;;11.50;1.83;;;;;;;;;;4958955;28;20279;-65
2023/03/27 00:21:31;;;;;;;9.70;1.60;;;;;;;;;;4960045;28;20233;-66
2023/03/27 00:23:56;;;;;;;9.47;1.47;;;;;;;;;;4961614;28;20658;-66
2023/03/27 00:26:21;;;;;;;10.30;1.87;;;;;;;;;;4956245;28;20221;-65
2023/03/27 00:28:47;;;;;;;9.10;1.50;;;;;;;;;;4942369;28;20294;-66
2023/03/27 00:31:13;;;;;;;10.43;1.70;;;;;;;;;;4940985;28;20274;-66
2023/03/27 00:33:38;;;;;;;9.03;1.60;;;;;;;;;;4916822;28;20241;-66
2023/03/27 00:36:03;;;;;;;8.67;1.37;;;;;;;;;;4934601;28;21101;-65
2023/03/27 00:38:29;;;;;;;9.47;1.40;;;;;;;;;;4939117;28;20354;-65
2023/03/27 00:40:54;;;;;;;8.80;1.60;;;;;;;;;;4941936;28;20785;-66
2023/03/27 00:43:20;;;;;;;7.03;1.67;;;;;;;;;;4941694;28;21624;-65
2023/03/27 00:45:46;;;;;;;9.50;1.70;;;;;;;;;;4961213;28;20216;-65
2023/03/27 00:48:11;;;;;;;7.73;1.60;;;;;;;;;;4963153;28;20225;-65
2023/03/27 00:50:38;;;;;;;6.63;1.40;;;;;;;;;;4964664;28;20760;-65
2023/03/27 00:53:04;;;;;;;14.63;1.70;;;;;;;;;;4944084;28;20679;-65
2023/03/27 00:55:30;;;;;;;11.20;1.90;;;;;;;;;;4956512;28;20214;-67
2023/03/27 00:57:57;;;;;;;7.10;1.53;;;;;;;;;;4956907;28;20222;-66
2023/03/27 01:00:22;;;;;;;9.90;1.50;;;;;;;;;;4945555;28;20254;-65
2023/03/27 01:02:48;;;;;;;12.17;1.53;;;;;;;;;;4945270;28;20625;-66
2023/03/27 01:05:14;;;;;;;9.27;1.30;;;;;;;;;;4963518;28;20264;-65
2023/03/27 01:07:39;;;;;;;9.93;1.53;;;;;;;;;;4963079;28;20228;-65
2023/03/27 01:10:05;;;;;;;9.53;1.43;;;;;;;;;;4962020;28;20229;-65
2023/03/27 01:12:44;;;;;;;11.17;1.67;;;;;;;;;;4952656;28;20805;-65
2023/03/27 01:15:15;;;;;;;9.27;1.50;;;;;;;;;;4961825;28;20809;-65
2023/03/27 01:17:42;;;;;;;9.97;1.87;;;;;;;;;;4938962;28;20528;-65
2023/03/27 01:20:13;;;;;;;10.20;1.60;;;;;;;;;;4955920;28;20243;-65
2023/03/27 01:22:42;;;;;;;7.93;1.57;;;;;;;;;;4956722;28;20731;-65
2023/03/27 01:25:12;;;;;;;8.63;1.50;;;;;;;;;;4944751;28;20206;-65
2023/03/27 01:27:57;;;;;;;8.70;1.53;;;;;;;;;;4933062;28;20241;-67
2023/03/27 01:30:24;;;;;;;6.73;1.20;;;;;;;;;;4954143;28;20683;-65
2023/03/27 01:33:06;;;;;;;8.77;1.40;;;;;;;;;;4927323;28;20277;-65
2023/03/27 01:35:49;;;;;;;10.60;1.70;;;;;;;;;;4962710;28;20210;-65
2023/03/27 01:38:15;;;;;;;8.23;1.60;;;;;;;;;;4928029;28;20523;-65
2023/03/27 01:40:44;;;;;;;8.53;1.63;;;;;;;;;;4937576;28;20214;-65
2023/03/27 01:43:11;;;;;;;7.17;1.60;;;;;;;;;;4948458;28;21195;-65
2023/03/27 01:45:44;;;;;;;5.03;1.10;;;;;;;;;;4954022;29;20311;-65
2023/03/27 01:48:10;;;;;;;10.13;1.60;;;;;;;;;;4936410;29;20257;-65
2023/03/27 01:50:37;;;;;;;7.17;1.30;;;;;;;;;;4936301;29;20221;-65
2023/03/27 01:53:06;;;;;;;10.00;1.70;;;;;;;;;;4936197;29;20218;-64
2023/03/27 01:55:33;;;;;;;9.90;1.40;;;;;;;;;;4936888;29;20249;-65
2023/03/27 01:58:02;;;;;;;8.70;1.30;;;;;;;;;;4935003;29;20524;-65
2023/03/27 02:00:27;;;;;;;6.63;1.60;;;;;;;;;;4940125;28;20307;-65
2023/03/27 02:03:11;;;;;;;6.17;1.30;;;;;;;;;;4955815;28;20229;-65
2023/03/27 02:05:39;;;;;;;11.77;1.40;;;;;;;;;;4972013;28;20215;-65
2023/03/27 02:08:07;;;;;;;8.20;1.53;;;;;;;;;;4955212;28;20209;-65
2023/03/27 02:10:35;;;;;;;9.77;1.40;;;;;;;;;;4971817;28;20591;-65
2023/03/27 02:13:03;;;;;;;7.70;1.50;;;;;;;;;;4955290;28;20206;-63
2023/03/27 02:15:30;;;;;;;7.90;1.27;;;;;;;;;;4955595;28;20264;-65
2023/03/27 02:18:04;;;;;;;11.67;1.50;;;;;;;;;;4954963;28;20293;-65
2023/03/27 02:20:30;;;;;;;7.63;1.30;;;;;;;;;;4972430;28;20218;-65
2023/03/27 02:22:59;;;;;;;10.27;1.60;;;;;;;;;;4955156;28;20739;-65
2023/03/27 02:25:35;;;;;;;8.23;1.60;;;;;;;;;;4971257;28;20252;-65
2023/03/27 02:28:21;;;;;;;8.47;1.30;;;;;;;;;;4972147;28;20700;-63
2023/03/27 02:30:51;;;;;;;10.13;1.80;;;;;;;;;;4960256;28;20285;-65
2023/03/27 02:33:18;;;;;;;8.07;1.30;;;;;;;;;;4951800;29;20305;-65
2023/03/27 02:35:49;;;;;;;10.17;1.80;;;;;;;;;;4936006;29;20682;-65
2023/03/27 02:38:17;;;;;;;8.20;1.70;;;;;;;;;;4952639;28;20677;-65
2023/03/27 02:40:46;;;;;;;8.73;1.80;;;;;;;;;;4954450;28;20690;-65
2023/03/27 02:43:19;;;;;;;9.73;1.60;;;;;;;;;;4942547;28;20293;-65
2023/03/27 02:45:44;;;;;;;8.07;1.37;;;;;;;;;;4941282;28;20221;-65
2023/03/27 02:48:16;;;;;;;9.67;1.73;;;;;;;;;;4957102;28;20218;-65
2023/03/27 02:50:50;;;;;;;11.20;1.60;;;;;;;;;;4963451;28;20217;-65
2023/03/27 02:53:16;;;;;;;10.57;1.70;;;;;;;;;;4964764;28;20198;-65
2023/03/27 02:55:43;;;;;;;8.97;1.73;;;;;;;;;;4936563;29;20217;-65
2023/03/27 02:58:10;;;;;;;7.67;1.80;;;;;;;;;;4935314;29;20218;-64
2023/03/27 03:00:38;;;;;;;10.67;1.80;;;;;;;;;;4951663;29;20230;-65
2023/03/27 03:03:04;;;;;;;9.73;1.73;;;;;;;;;;4952357;29;20714;-64
2023/03/27 03:05:29;;;;;;;8.53;1.80;;;;;;;;;;4952657;29;20268;-65
2023/03/27 03:07:57;;;;;;;8.10;1.70;;;;;;;;;;4934697;29;20697;-65
2023/03/27 03:10:23;;;;;;;7.53;1.77;;;;;;;;;;4935102;29;20210;-64
2023/03/27 03:12:48;;;;;;;8.17;1.70;;;;;;;;;;4952636;29;20218;-65
2023/03/27 03:15:14;;;;;;;8.27;1.90;;;;;;;;;;4951277;29;20211;-64
2023/03/27 03:17:39;;;;;;;6.47;1.80;;;;;;;;;;4952562;29;20288;-65
2023/03/27 03:20:06;;;;;;;7.93;1.87;;;;;;;;;;4951853;29;20219;-64
2023/03/27 03:22:31;;;;;;;7.90;1.50;;;;;;;;;;4951794;29;20698;-65
2023/03/27 03:24:57;;;;;;;6.63;1.50;;;;;;;;;;4952387;29;20314;-65
2023/03/27 03:27:22;;;;;;;10.70;1.77;;;;;;;;;;4963604;28;20216;-64
2023/03/27 03:29:47;;;;;;;8.97;1.93;;;;;;;;;;4966386;28;20214;-65
2023/03/27 03:32:12;;;;;;;8.27;1.70;;;;;;;;;;4951746;29;20226;-65
2023/03/27 03:34:40;;;;;;;8.53;1.80;;;;;;;;;;4952279;29;20219;-65
2023/03/27 03:37:09;;;;;;;7.53;1.60;;;;;;;;;;4951132;29;20293;-64
2023/03/27 03:39:34;;;;;;;9.17;1.70;;;;;;;;;;4962675;28;20300;-65
2023/03/27 03:41:59;;;;;;;7.37;1.80;;;;;;;;;;4953467;28;20747;-65
2023/03/27 03:44:25;;;;;;;7.40;1.50;;;;;;;;;;4970981;28;20229;-65
2023/03/27 03:46:50;;;;;;;8.57;1.63;;;;;;;;;;4971573;28;20747;-65
2023/03/27 03:49:15;;;;;;;6.20;1.50;;;;;;;;;;4970316;28;20218;-64
2023/03/27 03:51:41;;;;;;;7.57;1.57;;;;;;;;;;4971571;28;20681;-65
2023/03/27 03:54:08;;;;;;;9.17;1.60;;;;;;;;;;4958372;28;20210;-64
2023/03/27 03:56:33;;;;;;;7.63;1.70;;;;;;;;;;4951282;28;20211;-64
2023/03/27 03:58:58;;;;;;;6.20;1.40;;;;;;;;;;4952060;28;20256;-65
2023/03/27 04:01:24;;;;;;;6.93;1.60;;;;;;;;;;4951526;28;20214;-65
2023/03/27 04:03:50;;;;;;;5.33;1.40;;;;;;;;;;4951213;28;20210;-63
2023/03/27 04:06:19;;;;;;;7.47;1.60;;;;;;;;;;4949767;28;20474;-65
2023/03/27 04:08:44;;;;;;;5.63;1.30;;;;;;;;;;4936010;28;20214;-65
2023/03/27 04:11:09;;;;;;;8.30;1.30;;;;;;;;;;4939000;28;20316;-64
2023/03/27 04:13:35;;;;;;;5.53;1.30;;;;;;;;;;4942766;28;20230;-65
2023/03/27 04:16:00;;;;;;;4.20;0.80;;;;;;;;;;4942201;28;20227;-62
2023/03/27 04:18:29;;;;;;;2.90;0.90;;;;;;;;;;4941994;28;20221;-64
2023/03/27 04:20:57;;;;;;;4.33;0.70;;;;;;;;;;4942612;28;21366;-65
2023/03/27 04:23:29;;;;;;;4.30;0.90;;;;;;;;;;4945485;28;20222;-64
2023/03/27 04:25:54;;;;;;;4.17;1.00;;;;;;;;;;4942158;28;20301;-64
2023/03/27 04:28:20;;;;;;;5.00;1.20;;;;;;;;;;4938269;28;20698;-64
2023/03/27 04:30:49;;;;;;;2.97;0.70;;;;;;;;;;4944102;28;20237;-64
2023/03/27 04:33:21;;;;;;;3.83;0.70;;;;;;;;;;4960300;28;20336;-64
2023/03/27 04:35:49;;;;;;;3.57;0.80;;;;;;;;;;4965041;28;20272;-64
2023/03/27 04:38:14;;;;;;;6.17;1.13;;;;;;;;;;4946839;28;20214;-64
2023/03/27 04:40:44;;;;;;;2.43;0.70;;;;;;;;;;4945177;28;20621;-64
2023/03/27 04:43:10;;;;;;;2.17;0.70;;;;;;;;;;4944987;28;20289;-64
2023/03/27 04:45:35;;;;;;;3.13;0.63;;;;;;;;;;4957037;28;20715;-65
2023/03/27 04:48:01;;;;;;;5.50;2.43;;;;;;;;;;4943229;28;20210;-64
2023/03/27 04:50:26;;;;;;;4.83;1.40;;;;;;;;;;4939147;28;20266;-65
2023/03/27 04:52:57;;;;;;;5.63;1.00;;;;;;;;;;4937556;28;20726;-65
2023/03/27 04:55:24;;;;;;;3.33;0.90;;;;;;;;;;4939640;28;20238;-65
2023/03/27 04:57:49;;;;;;;3.17;1.20;;;;;;;;;;4945278;28;20613;-65
2023/03/27 05:00:17;;;;;;;3.23;0.90;;;;;;;;;;4944352;28;20301;-64
2023/03/27 05:02:43;;;;;;;3.80;0.93;;;;;;;;;;4945390;28;20207;-65
2023/03/27 05:05:09;;;;;;;5.07;0.70;;;;;;;;;;4944995;28;20585;-64
2023/03/27 05:07:34;;;;;;;2.10;0.70;;;;;;;;;;4944880;28;20218;-65
2023/03/27 05:10:00;;;;;;;3.17;0.70;;;;;;;;;;4945062;28;20206;-65
2023/03/27 05:12:26;;;;;;;6.30;2.37;;;;;;;;;;4956726;28;20507;-65
2023/03/27 05:14:52;;;;;;;4.57;1.50;;;;;;;;;;4950956;28;20737;-65
2023/03/27 05:17:17;;;;;;;4.13;1.50;;;;;;;;;;4937700;28;20245;-65
2023/03/27 05:19:43;;;;;;;2.93;1.00;;;;;;;;;;4944982;28;20708;-65
2023/03/27 05:22:08;;;;;;;1.90;0.80;;;;;;;;;;4943802;28;20223;-65
2023/03/27 05:24:34;;;;;;;3.13;0.80;;;;;;;;;;4944779;28;20215;-65
2023/03/27 05:26:59;;;;;;;2.47;1.30;;;;;;;;;;4944749;28;20222;-65
2023/03/27 05:29:25;;;;;;;4.17;0.90;;;;;;;;;;4943825;28;20238;-65
2023/03/27 05:31:51;;;;;;;2.80;1.20;;;;;;;;;;4944565;28;20693;-65
2023/03/27 05:34:19;;;;;;;1.77;0.87;;;;;;;;;;4940034;28;20838;-65
2023/03/27 05:36:45;;;;;;;1.10;0.60;;;;;;;;;;4936657;28;20478;-65
2023/03/27 05:39:11;;;;;;;4.10;0.80;;;;;;;;;;4937159;28;20250;-65
2023/03/27 05:41:37;;;;;;;2.67;0.70;;;;;;;;;;4941695;28;20214;-65
2023/03/27 05:44:02;;;;;;;2.70;0.70;;;;;;;;;;4944392;28;20214;-64
2023/03/27 05:46:27;;;;;;;4.90;1.10;;;;;;;;;;4945001;28;20756;-65
2023/03/27 05:48:53;;;;;;;2.63;0.77;;;;;;;;;;4944033;28;20261;-65
2023/03/27 05:51:18;;;;;;;5.30;0.90;;;;;;;;;;4944185;28;21227;-65
2023/03/27 05:53:43;;;;;;;3.77;0.80;;;;;;;;;;4944546;28;20207;-65
2023/03/27 05:56:09;;;;;;;2.17;0.97;;;;;;;;;;4940645;28;20750;-65
2023/03/27 05:58:35;;;;;;;2.97;0.83;;;;;;;;;;4937086;28;20212;-65
2023/03/27 06:01:01;;;;;;;3.23;0.90;;;;;;;;;;4937007;28;20218;-65
2023/03/27 06:03:28;;;;;;;3.70;0.90;;;;;;;;;;4938886;28;20218;-65
2023/03/27 06:05:54;;;;;;;2.70;0.80;;;;;;;;;;4927389;28;20215;-65
2023/03/27 06:08:19;;;;;;;3.90;0.90;;;;;;;;;;4943695;28;20226;-65
2023/03/27 06:10:44;;;;;;;3.77;0.90;;;;;;;;;;4944043;28;20228;-65
2023/03/27 06:13:11;;;;;;;4.03;0.90;;;;;;;;;;4943396;28;20210;-65
2023/03/27 06:15:37;;;;;;;2.92;0.90;;;;;;;;;;4944088;28;20950;-65
2023/03/27 06:18:02;;;;;;;5.00;2.27;;;;;;;;;;4941875;28;20202;-65
2023/03/27 06:20:28;;;;;;;6.17;1.73;;;;;;;;;;4953588;28;20222;-66
2023/03/27 06:22:55;;;;;;;4.70;1.33;;;;;;;;;;4936441;28;20317;-66
2023/03/27 06:25:21;;;;;;;3.60;1.50;;;;;;;;;;4948541;28;20245;-65
2023/03/27 06:27:46;;;;;;;5.20;1.90;;;;;;;;;;4947832;28;20207;-65
2023/03/27 06:30:12;;;;;;;4.97;1.70;;;;;;;;;;4943197;28;20710;-65
2023/03/27 06:32:42;;;;;;;3.73;2.03;;;;;;;;;;4941114;29;20226;-65
2023/03/27 06:35:09;;;;;;;5.27;2.00;;;;;;;;;;4924322;29;20298;-65
2023/03/27 06:37:36;;;;;;;4.47;1.60;;;;;;;;;;4924951;29;20218;-66
2023/03/27 06:40:03;;;;;;;3.20;1.47;;;;;;;;;;4923679;29;20278;-64
2023/03/27 06:42:28;;;;;;;4.63;1.40;;;;;;;;;;4916420;29;20472;-66
2023/03/27 06:44:54;;;;;;;6.40;1.88;;;;;;;;;;4915897;29;20211;-66
2023/03/27 06:47:19;;;;;;;4.85;1.50;;;;;;;;;;4916460;29;20728;-66
2023/03/27 06:49:46;;;;;;;4.17;1.40;;;;;;;;;;4923598;29;20425;-65
2023/03/27 06:52:12;;;;;;;4.65;1.25;;;;;;;;;;4923058;29;20208;-67
2023/03/27 06:54:37;;;;;;;5.28;1.67;;;;;;;;;;4924807;29;20223;-65
2023/03/27 06:57:03;;;;;;;4.95;1.70;;;;;;;;;;4923806;29;20254;-64
2023/03/27 06:59:28;;;;;;;4.38;1.52;;;;;;;;;;4923905;29;20230;-64
2023/03/27 07:01:53;;;;;;;3.95;1.65;;;;;;;;;;4930456;29;20738;-65
2023/03/27 07:04:19;;;;;;;3.53;1.20;;;;;;;;;;4932812;29;20215;-65
2023/03/27 07:06:47;;;;;;;4.25;1.42;;;;;;;;;;4932788;29;20758;-68
2023/03/27 07:09:13;;;;;;;4.67;1.50;;;;;;;;;;4932271;29;20226;-67
2023/03/27 07:11:38;;;;;;;6.30;1.65;;;;;;;;;;4928827;28;20214;-67
2023/03/27 07:14:03;;;;;;;3.78;1.40;;;;;;;;;;4931959;29;20219;-66
2023/03/27 07:16:30;;;;;;;5.68;1.40;;;;;;;;;;4951180;28;20220;-67
2023/03/27 07:18:56;;;;;;;3.90;1.33;;;;;;;;;;4952527;28;20222;-67
2023/03/27 07:21:21;;;;;;;4.55;1.70;;;;;;;;;;4951416;28;20210;-67
2023/03/27 07:23:46;;;;;;;5.95;1.30;;;;;;;;;;4952605;28;20214;-67
2023/03/27 07:26:12;;;;;;;6.15;1.33;;;;;;;;;;4950493;28;20226;-67
2023/03/27 07:28:37;;;;;;;3.25;1.30;;;;;;;;;;4941311;28;20249;-68
2023/03/27 07:31:07;;;;;;;5.97;1.50;;;;;;;;;;4939393;28;20237;-66
2023/03/27 07:33:32;;;;;;;5.07;1.17;;;;;;;;;;4963610;28;20674;-67
2023/03/27 07:35:58;;;;;;;4.40;1.20;;;;;;;;;;4954605;28;20213;-68
2023/03/27 07:38:23;;;;;;;6.50;1.38;;;;;;;;;;4953074;28;20340;-67
2023/03/27 07:40:49;;;;;;;4.47;1.50;;;;;;;;;;4964597;28;20232;-67
2023/03/27 07:43:14;;;;;;;5.40;1.40;;;;;;;;;;4958723;28;20211;-68
2023/03/27 07:45:40;;;;;;;5.70;1.40;;;;;;;;;;4957777;28;20293;-68
2023/03/27 07:48:07;;;;;;;5.15;1.38;;;;;;;;;;4964074;28;20280;-68
2023/03/27 07:50:32;;;;;;;7.32;1.35;;;;;;;;;;4954610;28;20218;-68
2023/03/27 07:52:57;;;;;;;6.65;1.65;;;;;;;;;;4951951;29;20261;-68
2023/03/27 07:55:23;;;;;;;6.88;1.42;;;;;;;;;;4958711;28;20724;-67
2023/03/27 07:57:48;;;;;;;6.53;1.40;;;;;;;;;;4967096;28;20202;-68
2023/03/27 08:00:15;;;;;;;6.75;1.80;;;;;;;;;;4961594;28;20305;-67
2023/03/27 08:02:40;;;;;;;7.05;1.73;;;;;;;;;;4960868;28;20292;-67
2023/03/27 08:05:07;;;;;;;5.53;1.40;;;;;;;;;;4964358;28;20306;-67
2023/03/27 08:07:33;;;;;;;8.32;1.50;;;;;;;;;;4964060;28;20214;-67
2023/03/27 08:09:58;;;;;;;6.75;2.15;;;;;;;;;;4965812;28;20695;-68
2023/03/27 08:12:24;;;;;;;5.82;1.95;;;;;;;;;;4969510;28;20213;-69
2023/03/27 08:14:49;;;;;;;10.30;3.00;;;;;;;;;;4967526;28;20218;-69
2023/03/27 08:17:14;;;;;;;12.88;5.40;;;;;;;;;;4958785;28;20578;-69
2023/03/27 08:19:40;;;;;;;11.40;3.90;;;;;;;;;;4955589;29;20237;-65
2023/03/27 08:22:05;;;;;;;8.35;2.90;;;;;;;;;;4955073;29;20214;-65
2023/03/27 08:24:31;;;;;;;15.85;5.88;;;;;;;;;;4959619;28;20222;-67
2023/03/27 08:26:57;;;;;;;11.82;3.30;;;;;;;;;;4965735;28;20218;-67
2023/03/27 08:29:22;;;;;;;7.88;1.80;;;;;;;;;;4963277;28;20260;-66
2023/03/27 08:31:47;;;;;;;7.47;2.22;;;;;;;;;;4957847;28;20911;-66
2023/03/27 08:34:13;;;;;;;9.85;3.38;;;;;;;;;;4958754;28;20210;-65
2023/03/27 08:36:38;;;;;;;10.18;3.15;;;;;;;;;;4964548;28;20222;-66
2023/03/27 08:39:06;;;;;;;9.73;2.72;;;;;;;;;;4961742;28;20684;-65
2023/03/27 08:41:37;;;;;;;8.95;2.13;;;;;;;;;;4959965;28;20228;-65
2023/03/27 08:44:02;;;;;;;15.95;6.80;;;;;;;;;;4946841;28;20205;-65
2023/03/27 08:46:34;;;;;;;8.00;2.20;;;;;;;;;;4935837;29;20217;-65
2023/03/27 08:49:03;;;;;;;7.53;1.85;;;;;;;;;;4953881;29;20221;-65
2023/03/27 08:51:30;;;;;;;8.55;1.70;;;;;;;;;;4935837;29;20210;-65
2023/03/27 08:53:57;;;;;;;7.53;1.80;;;;;;;;;;4953600;29;20210;-65
2023/03/27 08:56:23;;;;;;;6.88;1.50;;;;;;;;;;4936786;28;20230;-65
2023/03/27 08:58:48;;;;;;;4.53;1.17;;;;;;;;;;4963705;28;20248;-66
2023/03/27 09:01:25;;;;;;;4.13;1.30;;;;;;;;;;4952843;28;20238;-66
2023/03/27 09:03:53;;;;;;;4.15;1.00;;;;;;;;;;4936973;29;20216;-66
2023/03/27 09:06:23;;;;;;;5.15;2.58;;;;;;;;;;4952616;29;20305;-65
2023/03/27 09:08:51;;;;;;;2.92;0.98;;;;;;;;;;4953073;28;20206;-66
2023/03/27 09:11:21;;;;;;;3.83;0.73;;;;;;;;;;4953139;29;20210;-65
2023/03/27 09:13:47;;;;;;;2.45;0.60;;;;;;;;;;4961323;28;20613;-66
2023/03/27 09:16:13;;;;;;;1.08;0.50;;;;;;;;;;4972293;28;20210;-65
2023/03/27 09:18:40;;;;;;;1.02;0.52;;;;;;;;;;4972698;28;20221;-65
2023/03/27 09:21:07;;;;;;;1.88;0.60;;;;;;;;;;4963276;28;20677;-65
2023/03/27 09:23:37;;;;;;;3.53;1.60;;;;;;;;;;4943685;29;20273;-66
2023/03/27 09:26:05;;;;;;;2.90;1.70;;;;;;;;;;4954159;28;20211;-65
2023/03/27 09:28:34;;;;;;;2.75;0.80;;;;;;;;;;4954958;28;20317;-65
2023/03/27 09:31:10;;;;;;;3.22;0.70;;;;;;;;;;4903013;29;1132296;-66
2023/03/27 09:33:40;;;;;;;2.88;0.80;;;;;;;;;;4936207;29;20365;-66
2023/03/27 09:36:05;;;;;;;4.07;0.65;;;;;;;;;;4953839;29;20710;-66
2023/03/27 09:38:32;;;;;;;5.80;1.10;;;;;;;;;;4939015;28;20214;-66
2023/03/27 09:41:00;;;;;;;4.85;0.85;;;;;;;;;;4955562;28;20229;-66
2023/03/27 09:43:28;;;;;;;3.63;0.90;;;;;;;;;;4973235;28;20214;-66
2023/03/27 09:45:53;;;;;;;2.88;0.63;;;;;;;;;;4956171;28;20342;-66
2023/03/27 09:48:23;;;;;;;3.65;0.80;;;;;;;;;;4954766;28;20253;-66
2023/03/27 09:50:48;;;;;;;5.30;1.02;;;;;;;;;;4973169;28;20249;-67
2023/03/27 09:53:14;;;;;;;4.88;1.10;;;;;;;;;;4962280;28;20237;-66
2023/03/27 09:55:54;;;;;;;7.28;1.08;;;;;;;;;;4960891;28;20230;-67
2023/03/27 09:58:25;;;;;;;6.15;1.30;;;;;;;;;;4936227;29;20218;-67
2023/03/27 10:01:05;;;;;;;5.88;1.00;;;;;;;;;;4953260;28;20222;-67
2023/03/27 10:03:35;;;;;;;5.00;1.30;;;;;;;;;;4952624;29;20218;-67
2023/03/27 10:06:07;;;;;;;4.53;0.82;;;;;;;;;;4936472;29;20210;-65
2023/03/27 10:08:38;;;;;;;13.13;6.47;;;;;;;;;;4953417;29;20214;-66
2023/03/27 10:11:05;;;;;;;4.95;1.08;;;;;;;;;;4952616;28;20293;-65
2023/03/27 10:13:30;;;;;;;5.22;1.65;;;;;;;;;;4953588;29;20225;-66
2023/03/27 10:15:57;;;;;;;11.75;6.90;;;;;;;;;;4952934;29;20198;-65
2023/03/27 10:18:23;;;;;;;8.63;3.45;;;;;;;;;;4950299;28;20272;-65
2023/03/27 10:20:50;;;;;;;4.75;2.10;;;;;;;;;;4954633;28;20225;-65
2023/03/27 10:23:22;;;;;;;3.08;0.80;;;;;;;;;;4971264;28;20214;-65
2023/03/27 10:25:48;;;;;;;3.25;0.93;;;;;;;;;;4955423;28;20272;-66
2023/03/27 10:28:14;;;;;;;3.97;0.80;;;;;;;;;;4953329;28;20690;-65
2023/03/27 10:30:39;;;;;;;6.57;1.17;;;;;;;;;;4952104;29;20265;-66
2023/03/27 10:33:06;;;;;;;5.30;0.90;;;;;;;;;;4952696;29;20234;-65
2023/03/27 10:35:33;;;;;;;5.40;1.02;;;;;;;;;;4953143;29;20202;-66
2023/03/27 10:37:59;;;;;;;6.50;1.88;;;;;;;;;;4952445;29;20241;-66
2023/03/27 10:40:25;;;;;;;7.07;1.02;;;;;;;;;;4952282;28;20250;-66
2023/03/27 10:42:50;;;;;;;2.78;0.98;;;;;;;;;;4951872;29;20210;-66
2023/03/27 10:45:17;;;;;;;4.00;0.90;;;;;;;;;;4955380;28;20215;-65
2023/03/27 10:47:44;;;;;;;4.97;0.77;;;;;;;;;;4944514;28;20210;-66
2023/03/27 10:50:13;;;;;;;2.97;0.80;;;;;;;;;;4954655;28;20210;-66
2023/03/27 10:52:46;;;;;;;3.63;0.80;;;;;;;;;;4934999;29;20215;-69
2023/03/27 10:55:18;;;;;;;4.57;0.90;;;;;;;;;;4934899;29;20686;-66
2023/03/27 10:57:46;;;;;;;5.78;0.93;;;;;;;;;;4935661;29;20207;-66
2023/03/27 11:00:15;;;;;;;5.45;0.90;;;;;;;;;;4934543;29;20230;-66
2023/03/27 11:02:43;;;;;;;5.15;1.20;;;;;;;;;;4938281;28;20213;-66
2023/03/27 11:05:10;;;;;;;3.72;0.90;;;;;;;;;;4961894;28;20214;-67
2023/03/27 11:07:39;;;;;;;5.90;1.20;;;;;;;;;;4942993;28;20674;-67
2023/03/27 11:10:11;;;;;;;4.47;0.88;;;;;;;;;;4943698;28;20214;-66
2023/03/27 11:12:36;;;;;;;5.13;0.98;;;;;;;;;;4960797;28;20725;-66
2023/03/27 11:15:03;;;;;;;3.28;0.80;;;;;;;;;;4958215;28;20222;-68
2023/03/27 11:17:31;;;;;;;5.22;1.00;;;;;;;;;;4962481;28;20217;-66
2023/03/27 11:20:05;;;;;;;4.95;1.00;;;;;;;;;;4945196;28;20260;-67
2023/03/27 11:22:34;;;;;;;4.38;1.40;;;;;;;;;;4954709;28;20271;-67
2023/03/27 11:25:03;;;;;;;4.55;1.20;;;;;;;;;;4954028;28;20345;-66
2023/03/27 11:27:32;;;;;;;5.80;1.30;;;;;;;;;;4957930;28;20214;-67
2023/03/27 11:30:07;;;;;;;4.70;1.10;;;;;;;;;;4940709;28;20669;-68
2023/03/27 11:32:35;;;;;;;4.70;1.10;;;;;;;;;;4971052;28;20233;-67
2023/03/27 11:35:12;;;;;;;4.75;0.93;;;;;;;;;;4970111;28;20213;-64
2023/03/27 11:37:38;;;;;;;5.00;1.40;;;;;;;;;;4954239;28;20681;-66
2023/03/27 11:40:06;;;;;;;4.85;1.15;;;;;;;;;;4956213;28;20338;-66
2023/03/27 11:42:41;;;;;;;5.20;1.60;;;;;;;;;;4934361;29;20207;-66
2023/03/27 11:45:10;;;;;;;8.10;1.40;;;;;;;;;;4934623;29;20218;-67
2023/03/27 11:47:36;;;;;;;7.30;1.08;;;;;;;;;;4934147;29;20212;-67
2023/03/27 11:50:06;;;;;;;7.03;1.70;;;;;;;;;;4951614;29;20225;-66
2023/03/27 11:52:45;;;;;;;10.45;3.33;;;;;;;;;;4952029;29;20214;-66
2023/03/27 11:55:20;;;;;;;10.38;1.90;;;;;;;;;;4950892;29;20276;-66
2023/03/27 11:57:50;;;;;;;16.70;7.53;;;;;;;;;;4952000;29;20221;-66
2023/03/27 12:00:19;;;;;;;8.23;1.80;;;;;;;;;;4934321;29;20714;-66
2023/03/27 12:02:48;;;;;;;10.88;2.35;;;;;;;;;;4918193;29;20574;-67
2023/03/27 12:05:19;;;;;;;19.88;6.35;;;;;;;;;;4951422;29;20222;-66
2023/03/27 12:07:49;;;;;;;9.02;2.70;;;;;;;;;;4951602;29;20762;-66
2023/03/27 12:10:18;;;;;;;10.95;4.43;;;;;;;;;;4933566;29;20290;-66
2023/03/27 12:12:47;;;;;;;6.13;1.20;;;;;;;;;;4944660;28;20564;-67
2023/03/27 12:15:18;;;;;;;6.10;1.40;;;;;;;;;;4934426;29;20277;-66
2023/03/27 12:17:50;;;;;;;5.25;1.70;;;;;;;;;;4938900;28;20554;-67
2023/03/27 12:20:18;;;;;;;6.20;1.38;;;;;;;;;;4949662;28;20817;-67
2023/03/27 12:22:48;;;;;;;5.07;1.50;;;;;;;;;;4952566;28;20227;-68
2023/03/27 12:25:15;;;;;;;5.25;0.98;;;;;;;;;;4934004;29;20213;-66
2023/03/27 12:27:47;;;;;;;5.25;1.05;;;;;;;;;;4951811;28;20207;-67
2023/03/27 12:30:15;;;;;;;4.50;1.30;;;;;;;;;;4952679;28;20217;-66
2023/03/27 12:32:53;;;;;;;6.53;2.42;;;;;;;;;;4953405;28;20261;-66
2023/03/27 12:35:19;;;;;;;4.45;1.10;;;;;;;;;;4953229;28;20210;-67
2023/03/27 12:37:47;;;;;;;4.45;0.85;;;;;;;;;;4969686;28;20214;-67
2023/03/27 12:40:23;;;;;;;5.68;2.17;;;;;;;;;;4954537;28;20765;-67
2023/03/27 12:42:50;;;;;;;5.80;1.10;;;;;;;;;;4953087;28;20214;-67
2023/03/27 12:45:18;;;;;;;2.17;0.75;;;;;;;;;;4954280;29;20211;-66
2023/03/27 12:47:49;;;;;;;7.28;2.50;;;;;;;;;;4955192;29;20214;-67
2023/03/27 12:50:18;;;;;;;6.22;1.10;;;;;;;;;;4937206;29;20290;-66
2023/03/27 12:52:44;;;;;;;4.57;0.93;;;;;;;;;;4953615;28;20269;-66
2023/03/27 12:55:16;;;;;;;3.92;0.75;;;;;;;;;;4962141;28;20609;-66
2023/03/27 12:57:43;;;;;;;2.67;1.00;;;;;;;;;;4956593;28;20226;-67
2023/03/27 13:00:16;;;;;;;4.72;1.05;;;;;;;;;;4937298;29;20285;-66
2023/03/27 13:02:41;;;;;;;4.38;0.80;;;;;;;;;;4937400;29;20297;-67
2023/03/27 13:05:13;;;;;;;5.53;2.22;;;;;;;;;;4953560;29;20297;-66
2023/03/27 13:07:43;;;;;;;2.50;0.85;;;;;;;;;;4954419;29;20214;-66
2023/03/27 13:10:20;;;;;;;5.65;1.60;;;;;;;;;;4937171;29;20253;-66
2023/03/27 13:12:51;;;;;;;5.15;1.73;;;;;;;;;;4954159;28;20222;-66
2023/03/27 13:15:19;;;;;;;5.63;1.20;;;;;;;;;;4956122;28;20681;-66
2023/03/27 13:17:44;;;;;;;5.10;1.38;;;;;;;;;;4974167;28;20265;-66
2023/03/27 13:20:11;;;;;;;4.70;1.25;;;;;;;;;;4966641;28;20226;-66
2023/03/27 13:22:43;;;;;;;5.22;1.55;;;;;;;;;;4954060;29;20233;-66
2023/03/27 13:25:27;;;;;;;5.90;1.13;;;;;;;;;;4936659;29;20233;-66
2023/03/27 13:28:10;;;;;;;5.35;1.50;;;;;;;;;;4953688;28;20214;-66
2023/03/27 13:30:45;;;;;;;6.38;1.73;;;;;;;;;;4953854;28;20203;-67
2023/03/27 13:33:15;;;;;;;5.55;2.08;;;;;;;;;;4953080;29;20268;-66
2023/03/27 13:35:51;;;;;;;5.43;0.80;;;;;;;;;;4954395;29;20206;-67
2023/03/27 13:38:16;;;;;;;3.05;0.80;;;;;;;;;;4968405;28;20217;-66
2023/03/27 13:40:44;;;;;;;3.30;0.80;;;;;;;;;;4953228;29;20579;-66
2023/03/27 13:43:22;;;;;;;4.50;0.70;;;;;;;;;;4953662;29;20211;-66
2023/03/27 13:45:48;;;;;;;3.33;0.77;;;;;;;;;;4954156;29;20252;-66
2023/03/27 13:48:35;;;;;;;4.15;1.02;;;;;;;;;;4952834;29;20219;-66
2023/03/27 13:51:01;;;;;;;2.72;0.70;;;;;;;;;;4936736;29;20211;-66
2023/03/27 13:53:31;;;;;;;3.95;0.70;;;;;;;;;;4952641;28;20217;-66
2023/03/27 13:56:12;;;;;;;4.22;1.17;;;;;;;;;;4954285;28;21685;-67
2023/03/27 13:58:43;;;;;;;3.92;0.88;;;;;;;;;;4940665;28;20221;-66
2023/03/27 14:01:20;;;;;;;3.90;0.93;;;;;;;;;;4940594;28;20233;-66
2023/03/27 14:03:51;;;;;;;4.90;0.80;;;;;;;;;;4943092;28;20689;-66
2023/03/27 14:06:25;;;;;;;4.05;1.20;;;;;;;;;;4950329;28;20229;-67
2023/03/27 14:08:56;;;;;;;5.60;1.35;;;;;;;;;;4965923;28;20295;-67
2023/03/27 14:11:22;;;;;;;3.78;0.90;;;;;;;;;;4965865;28;20745;-67
2023/03/27 14:13:51;;;;;;;5.93;1.52;;;;;;;;;;4948484;28;20604;-67
2023/03/27 14:16:27;;;;;;;8.38;1.50;;;;;;;;;;4962873;28;20226;-67
2023/03/27 14:18:59;;;;;;;5.82;0.95;;;;;;;;;;4966405;28;20213;-67
2023/03/27 14:21:26;;;;;;;5.80;1.30;;;;;;;;;;4960367;28;20272;-67
2023/03/27 14:23:54;;;;;;;4.95;1.08;;;;;;;;;;4958121;28;20725;-67
2023/03/27 14:26:23;;;;;;;7.60;2.10;;;;;;;;;;4956764;28;20210;-67
2023/03/27 14:28:50;;;;;;;5.53;1.30;;;;;;;;;;4929069;28;20210;-67
2023/03/27 14:31:17;;;;;;;4.63;1.00;;;;;;;;;;4946522;28;20250;-67
2023/03/27 14:33:48;;;;;;;4.68;0.93;;;;;;;;;;4930833;28;20210;-67
2023/03/27 14:36:15;;;;;;;7.28;1.05;;;;;;;;;;4946615;28;20226;-67
2023/03/27 14:38:41;;;;;;;6.18;0.90;;;;;;;;;;4947107;28;20281;-67
2023/03/27 14:41:15;;;;;;;6.65;1.15;;;;;;;;;;4946819;28;20730;-66
2023/03/27 14:43:43;;;;;;;3.70;1.00;;;;;;;;;;4925550;28;20202;-67
2023/03/27 14:46:10;;;;;;;5.13;1.33;;;;;;;;;;4938841;28;20812;-67